createdAt,value
2022-11-03T00:01:39.883Z,1.40
2022-11-03T00:04:09.864Z,1.70
2022-11-03T00:06:41.612Z,1.65
2022-11-03T00:09:12.435Z,2.17
2022-11-03T00:11:45.221Z,1.67
2022-11-03T00:14:16.557Z,2.20
2022-11-03T00:16:45.927Z,2.40
2022-11-03T00:19:17.184Z,2.58
2022-11-03T00:21:46.838Z,2.42
2022-11-03T00:24:16.389Z,2.00
2022-11-03T00:26:47.578Z,1.77
2022-11-03T00:29:17.450Z,2.22
2022-11-03T00:31:46.424Z,2.22
2022-11-03T00:34:15.135Z,1.45
2022-11-03T00:36:46.831Z,1.70
2022-11-03T00:39:16.685Z,1.70
2022-11-03T00:41:46.523Z,1.90
2022-11-03T00:44:15.311Z,2.20
2022-11-03T00:46:45.016Z,1.63
2022-11-03T00:49:13.685Z,1.73
2022-11-03T00:51:42.344Z,1.80
2022-11-03T00:54:10.831Z,1.75
2022-11-03T00:56:40.651Z,1.70
2022-11-03T00:59:11.687Z,2.00
2022-11-03T01:01:46.766Z,1.80
2022-11-03T01:04:34.707Z,1.67
2022-11-03T01:07:06.679Z,1.55
2022-11-03T01:09:38.472Z,1.60
2022-11-03T01:12:09.364Z,1.70
2022-11-03T01:14:40.937Z,1.35
2022-11-03T01:17:12.139Z,1.50
2022-11-03T01:19:41.940Z,1.55
2022-11-03T01:22:11.590Z,1.65
2022-11-03T01:24:41.711Z,1.50
2022-11-03T01:27:10.978Z,1.70
2022-11-03T01:29:41.549Z,1.75
2022-11-03T01:32:12.305Z,1.50
2022-11-03T01:34:41.565Z,2.08
2022-11-03T01:37:10.203Z,1.70
2022-11-03T01:39:38.718Z,2.13
2022-11-03T01:42:07.498Z,1.92
2022-11-03T01:44:47.789Z,1.90
2022-11-03T01:47:24.463Z,1.80
2022-11-03T01:49:57.897Z,2.00
2022-11-03T01:52:32.270Z,2.00
2022-11-03T01:55:05.898Z,1.70
2022-11-03T01:57:40.070Z,1.83
2022-11-03T02:00:12.428Z,2.08
2022-11-03T02:02:41.778Z,2.05
2022-11-03T02:05:12.484Z,2.20
2022-11-03T02:07:48.423Z,1.80
2022-11-03T02:10:18.623Z,2.00
2022-11-03T02:12:49.788Z,2.40
2022-11-03T02:15:22.947Z,1.88
2022-11-03T02:17:53.750Z,1.88
2022-11-03T02:20:26.626Z,2.00
2022-11-03T02:23:22.826Z,1.90
2022-11-03T02:25:56.414Z,2.17
2022-11-03T02:28:27.132Z,1.80
2022-11-03T02:31:10.233Z,2.55
2022-11-03T02:33:50.011Z,2.20
2022-11-03T02:36:24.169Z,2.33
2022-11-03T02:38:59.784Z,2.08
2022-11-03T02:41:32.160Z,2.53
2022-11-03T02:44:02.793Z,2.53
2022-11-03T02:46:35.274Z,2.40
2022-11-03T02:49:04.205Z,2.03
2022-11-03T02:51:32.636Z,2.22
2022-11-03T02:54:07.711Z,1.92
2022-11-03T02:56:45.104Z,2.25
2022-11-03T02:59:16.474Z,2.25
2022-11-03T03:01:53.206Z,2.40
2022-11-03T03:04:28.854Z,2.10
2022-11-03T03:07:03.268Z,2.20
2022-11-03T03:09:39.051Z,2.30
2022-11-03T03:12:11.880Z,2.20
2022-11-03T03:14:46.058Z,2.20
2022-11-03T03:17:20.317Z,2.00
2022-11-03T03:19:54.379Z,2.15
2022-11-03T03:22:26.146Z,2.08
2022-11-03T03:25:02.395Z,1.98
2022-11-03T03:27:36.017Z,2.08
2022-11-03T03:30:08.705Z,2.03
2022-11-03T03:32:40.889Z,1.70
2022-11-03T03:35:14.436Z,1.80
2022-11-03T03:37:47.820Z,2.20
2022-11-03T03:40:23.234Z,2.05
2022-11-03T03:42:54.235Z,1.98
2022-11-03T03:45:26.480Z,1.73
2022-11-03T03:47:57.789Z,2.15
2022-11-03T03:50:28.724Z,2.00
2022-11-03T03:52:59.364Z,2.65
2022-11-03T03:55:36.509Z,2.00
2022-11-03T03:58:07.690Z,2.13
2022-11-03T04:00:40.328Z,1.92
2022-11-03T04:03:16.409Z,2.00
2022-11-03T04:05:47.626Z,2.38
2022-11-03T04:08:18.336Z,2.30
2022-11-03T04:11:02.262Z,2.35
2022-11-03T04:14:04.653Z,2.13
2022-11-03T04:16:50.720Z,2.08
2022-11-03T04:19:37.854Z,2.47
2022-11-03T04:22:19.523Z,2.85
2022-11-03T04:24:50.021Z,2.17
2022-11-03T04:27:31.985Z,2.65
2022-11-03T04:30:11.898Z,2.72
2022-11-03T04:32:40.610Z,2.35
2022-11-03T04:35:17.423Z,2.42
2022-11-03T04:37:48.029Z,2.63
2022-11-03T04:40:18.707Z,2.75
2022-11-03T04:42:50.519Z,2.50
2022-11-03T04:45:25.560Z,2.78
2022-11-03T04:47:54.591Z,2.95
2022-11-03T04:50:24.836Z,2.60
2022-11-03T04:52:57.617Z,2.55
2022-11-03T04:55:28.340Z,2.70
2022-11-03T04:58:01.770Z,2.85
2022-11-03T05:00:31.879Z,2.33
2022-11-03T05:03:00.628Z,2.70
2022-11-03T05:05:30.180Z,2.70
2022-11-03T05:08:00.651Z,2.45
2022-11-03T05:10:30.905Z,2.33
2022-11-03T05:13:01.808Z,2.78
2022-11-03T05:15:36.002Z,2.63
2022-11-03T05:18:15.326Z,2.85
2022-11-03T05:20:48.314Z,3.03
2022-11-03T05:23:17.410Z,2.70
2022-11-03T05:25:48.889Z,2.42
2022-11-03T05:28:27.020Z,2.47
2022-11-03T05:30:57.644Z,2.90
2022-11-03T05:33:31.095Z,2.05
2022-11-03T05:36:03.838Z,2.55
2022-11-03T05:38:34.756Z,2.88
2022-11-03T05:41:03.946Z,2.53
2022-11-03T05:43:32.596Z,2.30
2022-11-03T05:46:04.555Z,2.40
2022-11-03T05:48:37.186Z,2.88
2022-11-03T05:51:19.935Z,1.95
2022-11-03T05:53:52.674Z,2.85
2022-11-03T05:56:23.848Z,2.45
2022-11-03T05:58:54.903Z,2.30
2022-11-03T06:01:30.135Z,2.50
2022-11-03T06:04:01.028Z,2.85
2022-11-03T06:06:34.924Z,2.30
2022-11-03T06:09:10.904Z,2.10
2022-11-03T06:11:43.653Z,2.58
2022-11-03T06:14:19.974Z,2.78
2022-11-03T06:16:58.065Z,2.08
2022-11-03T06:19:31.949Z,2.38
2022-11-03T06:22:04.533Z,2.25
2022-11-03T06:24:35.811Z,2.33
2022-11-03T06:27:05.041Z,2.20
2022-11-03T06:29:35.785Z,2.08
2022-11-03T06:32:12.408Z,2.38
2022-11-03T06:34:44.942Z,2.25
2022-11-03T06:37:26.174Z,2.38
2022-11-03T06:40:02.335Z,2.50
2022-11-03T06:42:35.290Z,2.08
2022-11-03T06:45:14.408Z,2.65
2022-11-03T06:47:44.583Z,2.53
2022-11-03T06:50:24.286Z,3.60
2022-11-03T06:52:55.016Z,2.47
2022-11-03T06:55:28.534Z,2.45
2022-11-03T06:58:01.546Z,2.40
2022-11-03T07:00:34.607Z,2.10
2022-11-03T07:03:22.527Z,2.15
2022-11-03T07:05:51.559Z,1.98
2022-11-03T07:08:25.994Z,2.20
2022-11-03T07:11:02.860Z,2.70
2022-11-03T07:13:35.973Z,2.17
2022-11-03T07:16:05.155Z,1.95
2022-11-03T07:18:42.890Z,2.22
2022-11-03T07:21:30.824Z,2.22
2022-11-03T07:24:04.593Z,2.10
2022-11-03T07:26:35.441Z,1.85
2022-11-03T07:29:06.074Z,1.70
2022-11-03T07:31:36.082Z,2.33
2022-11-03T07:34:15.918Z,1.92
2022-11-03T07:36:51.230Z,2.08
2022-11-03T07:39:25.992Z,1.98
2022-11-03T07:41:55.592Z,1.70
2022-11-03T07:44:26.056Z,2.00
2022-11-03T07:46:54.736Z,1.88
2022-11-03T07:49:30.216Z,1.88
2022-11-03T07:52:01.483Z,2.08
2022-11-03T07:54:38.689Z,2.00
2022-11-03T07:57:16.086Z,1.83
2022-11-03T07:59:49.434Z,2.10
2022-11-03T08:02:33.872Z,1.90
2022-11-03T08:05:05.796Z,1.70
2022-11-03T08:07:36.881Z,2.20
2022-11-03T08:10:07.551Z,2.15
2022-11-03T08:12:36.218Z,2.03
2022-11-03T08:15:05.752Z,2.20
2022-11-03T08:17:36.284Z,2.22
2022-11-03T08:20:11.024Z,2.15
2022-11-03T08:22:59.126Z,3.17
2022-11-03T08:33:44.472Z,2.65
2022-11-03T08:54:24.003Z,2.20
2022-11-03T08:58:34.825Z,2.20
2022-11-03T09:02:26.617Z,1.65
2022-11-03T09:06:04.134Z,1.40
2022-11-03T09:12:10.647Z,2.97
2022-11-03T09:15:00.931Z,1.88
2022-11-03T09:17:30.182Z,1.67
2022-11-03T09:20:00.022Z,1.80
2022-11-03T09:22:28.704Z,2.30
2022-11-03T09:25:03.371Z,1.77
2022-11-03T09:27:34.263Z,1.85
2022-11-03T09:30:17.471Z,1.80
2022-11-03T09:32:47.670Z,1.88
2022-11-03T09:35:20.682Z,1.40
2022-11-03T09:37:49.582Z,2.40
2022-11-03T10:11:23.793Z,1.83
2022-11-03T10:13:56.324Z,2.00
2022-11-03T10:16:28.577Z,2.80
2022-11-03T10:35:59.081Z,1.90
2022-11-03T10:38:32.453Z,1.92
2022-11-03T10:41:15.854Z,1.92
2022-11-03T10:44:02.949Z,1.70
2022-11-03T10:46:50.166Z,2.35
2022-11-03T10:49:21.539Z,2.05
2022-11-03T10:51:54.813Z,1.75
2022-11-03T10:54:25.768Z,1.67
2022-11-03T10:57:03.975Z,1.40
2022-11-03T10:59:39.540Z,1.48
2022-11-03T11:02:18.176Z,1.80
2022-11-03T11:05:02.392Z,2.10
2022-11-03T11:07:36.772Z,1.90
2022-11-03T11:10:09.171Z,1.85
2022-11-03T11:12:38.966Z,2.13
2022-11-03T11:15:38.621Z,1.77
2022-11-03T11:18:07.142Z,2.15
2022-11-03T11:20:44.429Z,1.77
2022-11-03T11:23:49.476Z,1.85
2022-11-03T11:26:37.883Z,1.67
2022-11-03T11:29:45.219Z,1.80
2022-11-03T11:32:56.621Z,2.15
2022-11-03T11:36:01.677Z,1.98
2022-11-03T11:38:59.601Z,2.03
2022-11-03T11:42:17.039Z,2.05
2022-11-03T11:44:58.221Z,1.95
2022-11-03T11:47:51.911Z,1.85
2022-11-03T11:50:34.030Z,2.05
2022-11-03T11:53:29.139Z,1.98
2022-11-03T11:56:01.778Z,1.67
2022-11-03T11:58:43.392Z,2.15
2022-11-03T12:01:38.011Z,2.10
2022-11-03T12:04:09.787Z,1.45
2022-11-03T12:06:41.370Z,1.55
2022-11-03T12:09:19.106Z,1.98
2022-11-03T12:11:53.904Z,2.63
2022-11-03T12:14:26.364Z,1.70
2022-11-03T12:16:57.683Z,1.92
2022-11-03T12:19:43.683Z,2.38
2022-11-03T12:22:13.930Z,2.28
2022-11-03T12:24:55.655Z,2.35
2022-11-03T12:27:44.966Z,2.00
2022-11-03T12:30:17.425Z,2.13
2022-11-03T12:32:52.131Z,1.90
2022-11-03T12:35:22.187Z,2.13
2022-11-03T12:37:50.806Z,2.40
2022-11-03T12:40:19.160Z,2.38
2022-11-03T12:42:56.114Z,1.80
2022-11-03T12:45:25.281Z,1.92
2022-11-03T12:47:58.759Z,2.30
2022-11-03T12:50:27.573Z,2.38
2022-11-03T12:52:58.289Z,2.42
2022-11-03T12:57:56.098Z,2.50
2022-11-03T13:00:25.540Z,2.65
2022-11-03T13:02:56.056Z,2.90
2022-11-03T13:05:26.279Z,2.65
2022-11-03T13:08:01.865Z,2.90
2022-11-03T13:10:30.371Z,2.60
2022-11-03T13:12:59.181Z,3.08
2022-11-03T13:15:28.992Z,2.83
2022-11-03T13:18:17.089Z,2.50
2022-11-03T13:20:47.318Z,1.98
2022-11-03T13:23:18.853Z,2.55
2022-11-03T13:25:50.571Z,2.33
2022-11-03T13:28:19.314Z,2.20
2022-11-03T13:30:49.303Z,2.35
2022-11-03T13:33:19.496Z,2.35
2022-11-03T13:35:48.108Z,2.28
2022-11-03T13:38:24.118Z,1.83
2022-11-03T13:40:57.082Z,2.03
2022-11-03T13:43:27.532Z,2.05
2022-11-03T13:46:03.146Z,2.30
2022-11-03T13:51:23.285Z,2.00
2022-11-03T13:59:29.302Z,1.80
2022-11-03T14:04:53.258Z,2.03
2022-11-03T14:07:29.057Z,2.28
2022-11-03T14:10:12.302Z,2.30
2022-11-03T14:12:42.825Z,1.80
2022-11-03T14:15:13.477Z,2.38
2022-11-03T14:17:48.788Z,2.00
2022-11-03T14:22:55.159Z,2.55
2022-11-03T14:25:24.912Z,2.63
2022-11-03T14:27:57.277Z,3.80
2022-11-03T14:30:27.694Z,2.25
2022-11-03T14:33:42.935Z,2.15
2022-11-03T14:39:42.157Z,1.95
2022-11-03T14:42:15.954Z,2.72
2022-11-03T14:44:47.996Z,2.55
2022-11-03T14:47:19.334Z,3.08
2022-11-03T14:49:49.765Z,2.95
2022-11-03T14:52:28.412Z,3.28
2022-11-03T14:55:02.667Z,3.97
2022-11-03T14:57:42.160Z,4.90
2022-11-03T15:00:12.535Z,3.13
2022-11-03T15:02:43.406Z,2.88
2022-11-03T15:05:33.508Z,2.28
2022-11-03T15:08:05.238Z,2.60
2022-11-03T15:10:35.329Z,2.67
2022-11-03T15:13:12.064Z,2.20
2022-11-03T15:15:41.791Z,2.20
2022-11-03T15:18:12.413Z,2.38
2022-11-03T15:20:48.344Z,2.50
2022-11-03T15:26:12.406Z,2.40
2022-11-03T15:28:43.881Z,2.80
2022-11-03T15:31:27.628Z,2.00
2022-11-03T15:34:04.391Z,2.58
2022-11-03T15:36:37.822Z,2.38
2022-11-03T15:39:14.674Z,5.20
2022-11-03T15:41:57.935Z,4.50
2022-11-03T15:44:37.234Z,5.07
2022-11-03T15:47:24.834Z,6.25
2022-11-03T15:49:57.738Z,3.20
2022-11-03T15:52:35.337Z,2.05
2022-11-03T15:55:09.425Z,1.45
2022-11-03T15:57:38.429Z,2.05
2022-11-03T16:00:16.590Z,1.67
2022-11-03T16:02:47.115Z,1.70
2022-11-03T16:05:24.825Z,1.73
2022-11-03T16:08:02.808Z,2.13
2022-11-03T16:10:32.862Z,1.90
2022-11-03T16:13:01.368Z,1.70
2022-11-03T16:15:29.695Z,1.67
2022-11-03T16:18:02.877Z,1.70
2022-11-03T16:20:32.453Z,1.67
2022-11-03T16:23:00.782Z,1.33
2022-11-03T16:25:30.086Z,1.67
2022-11-03T16:28:00.446Z,1.95
2022-11-03T16:30:28.825Z,2.03
2022-11-03T16:32:57.156Z,2.17
2022-11-03T16:35:25.656Z,2.42
2022-11-03T16:37:54.414Z,2.53
2022-11-03T16:40:22.935Z,2.70
2022-11-03T16:42:51.866Z,2.42
2022-11-03T16:45:23.886Z,5.63
2022-11-03T16:47:52.394Z,4.47
2022-11-03T16:50:21.463Z,10.30
2022-11-03T16:52:51.856Z,8.88
2022-11-03T16:55:20.617Z,9.13
2022-11-03T16:57:49.034Z,7.63
2022-11-03T17:00:20.536Z,8.05
2022-11-03T17:02:51.503Z,9.05
2022-11-03T17:05:21.626Z,8.57
2022-11-03T17:07:53.895Z,6.40
2022-11-03T17:10:24.621Z,8.23
2022-11-03T17:12:53.542Z,6.28
2022-11-03T17:15:22.478Z,6.50
2022-11-03T17:17:52.692Z,7.50
2022-11-03T17:20:21.173Z,6.03
2022-11-03T17:22:49.646Z,7.75
2022-11-03T17:25:18.951Z,6.60
2022-11-03T17:27:50.092Z,8.05
2022-11-03T17:30:22.476Z,7.20
2022-11-03T17:32:57.415Z,7.63
2022-11-03T17:35:39.297Z,7.18
2022-11-03T17:38:14.154Z,6.30
2022-11-03T17:40:45.312Z,6.32
2022-11-03T17:43:22.682Z,4.60
2022-11-03T17:45:51.437Z,4.85
2022-11-03T17:48:23.001Z,4.78
2022-11-03T17:50:53.802Z,5.90
2022-11-03T17:53:26.697Z,5.05
2022-11-03T17:56:28.402Z,4.60
2022-11-03T17:58:46.912Z,5.00
2022-11-03T18:01:22.051Z,5.40
2022-11-03T18:03:52.911Z,4.65
2022-11-03T18:06:23.316Z,4.30
2022-11-03T18:08:51.863Z,3.72
2022-11-03T18:11:46.373Z,4.35
2022-11-03T18:14:15.450Z,4.85
2022-11-03T18:16:44.490Z,4.53
2022-11-03T18:19:16.956Z,5.15
2022-11-03T18:21:46.454Z,4.60
2022-11-03T18:24:19.054Z,4.72
2022-11-03T18:26:48.730Z,5.03
2022-11-03T18:29:17.273Z,4.30
2022-11-03T18:31:49.987Z,4.40
2022-11-03T18:34:23.599Z,4.75
2022-11-03T18:36:53.000Z,4.50
2022-11-03T18:39:25.385Z,4.43
2022-11-03T18:41:53.944Z,4.78
2022-11-03T18:44:24.296Z,4.95
2022-11-03T18:46:56.133Z,5.25
2022-11-03T18:49:27.601Z,3.70
2022-11-03T18:52:03.595Z,3.90
2022-11-03T18:54:33.979Z,2.90
2022-11-03T18:57:03.578Z,2.55
2022-11-03T18:59:35.534Z,2.45
2022-11-03T19:02:04.002Z,2.63
2022-11-03T19:04:34.211Z,2.17
2022-11-03T19:07:04.232Z,2.15
2022-11-03T19:09:32.553Z,3.10
2022-11-03T19:12:02.814Z,3.17
2022-11-03T19:14:34.615Z,3.45
2022-11-03T19:17:24.252Z,5.03
2022-11-03T19:19:54.865Z,5.70
2022-11-03T19:22:26.497Z,6.78
2022-11-03T19:24:54.983Z,5.25
2022-11-03T19:27:27.964Z,4.70
2022-11-03T19:29:58.499Z,3.60
2022-11-03T19:32:30.215Z,4.20
2022-11-03T19:35:04.440Z,4.00
2022-11-03T19:37:36.036Z,3.50
2022-11-03T19:40:09.261Z,3.60
2022-11-03T19:42:37.491Z,4.30
2022-11-03T19:45:08.961Z,6.20
2022-11-03T19:47:47.968Z,6.75
2022-11-03T19:50:27.186Z,4.68
2022-11-03T19:52:57.603Z,5.60
2022-11-03T19:55:31.172Z,9.68
2022-11-03T19:58:03.395Z,11.95
2022-11-03T20:00:32.807Z,11.27
2022-11-03T20:03:03.476Z,9.32
2022-11-03T20:05:33.858Z,7.05
2022-11-03T20:08:06.546Z,9.07
2022-11-03T20:10:36.462Z,5.78
2022-11-03T20:13:06.105Z,6.35
2022-11-03T20:15:35.174Z,5.03
2022-11-03T20:18:03.849Z,6.22
2022-11-03T20:20:37.433Z,8.05
2022-11-03T20:23:07.200Z,7.15
2022-11-03T20:25:38.459Z,6.22
2022-11-03T20:28:18.175Z,6.18
2022-11-03T20:30:47.058Z,6.43
2022-11-03T20:33:18.008Z,7.53
2022-11-03T20:35:49.297Z,6.70
2022-11-03T20:38:20.498Z,6.72
2022-11-03T20:40:55.887Z,6.30
2022-11-03T20:43:27.841Z,6.32
2022-11-03T20:45:57.025Z,8.00
2022-11-03T20:48:26.237Z,7.05
2022-11-03T20:50:57.615Z,6.32
2022-11-03T20:53:26.946Z,5.20
2022-11-03T20:55:55.464Z,5.07
2022-11-03T20:58:23.838Z,5.28
2022-11-03T21:00:52.305Z,4.30
2022-11-03T21:03:37.909Z,4.80
2022-11-03T21:06:15.037Z,4.30
2022-11-03T21:08:43.946Z,4.75
2022-11-03T21:11:28.126Z,6.38
2022-11-03T21:13:58.532Z,7.22
2022-11-03T21:16:46.941Z,6.93
2022-11-03T21:19:37.162Z,7.68
2022-11-03T21:25:04.559Z,7.43
2022-11-03T21:27:34.655Z,7.35
2022-11-03T21:30:06.253Z,11.00
2022-11-03T21:32:34.810Z,7.63
2022-11-03T21:35:03.341Z,6.22
2022-11-03T21:37:33.296Z,4.97
2022-11-03T21:40:01.962Z,5.60
2022-11-03T21:42:47.929Z,5.72
2022-11-03T21:45:16.755Z,6.43
2022-11-03T21:48:08.737Z,13.40
2022-11-03T21:50:39.675Z,7.78
2022-11-03T21:53:10.578Z,6.13
2022-11-03T21:55:39.710Z,7.35
2022-11-03T21:58:08.719Z,7.75
2022-11-03T22:00:37.017Z,5.75
2022-11-03T22:03:06.477Z,5.30
2022-11-03T22:05:35.437Z,7.15
2022-11-03T22:08:04.028Z,5.85
2022-11-03T22:10:34.035Z,6.65
2022-11-03T22:13:03.508Z,5.65
2022-11-03T22:15:49.343Z,5.75
2022-11-03T22:18:17.971Z,5.93
2022-11-03T22:21:03.687Z,6.63
2022-11-03T22:23:49.563Z,7.13
2022-11-03T22:26:37.158Z,6.10
2022-11-03T22:29:37.908Z,4.90
2022-11-03T22:32:13.577Z,5.00
2022-11-03T22:34:59.828Z,5.20
2022-11-03T22:40:13.849Z,9.27
2022-11-03T22:43:01.174Z,16.13
2022-11-03T22:45:47.282Z,8.32
2022-11-03T22:48:16.615Z,6.95
2022-11-03T22:50:45.616Z,5.18
2022-11-03T22:53:31.504Z,6.00
2022-11-03T22:56:02.058Z,5.82
2022-11-03T22:58:32.597Z,5.00
2022-11-03T23:01:05.573Z,5.10
2022-11-03T23:03:35.764Z,4.80
2022-11-03T23:06:05.784Z,5.75
2022-11-03T23:08:35.845Z,4.93
2022-11-03T23:11:06.554Z,5.00
2022-11-03T23:13:37.574Z,4.93
2022-11-03T23:16:14.306Z,5.30
2022-11-03T23:19:01.656Z,4.50
2022-11-03T23:21:31.131Z,4.95
2022-11-03T23:24:17.012Z,4.70
2022-11-03T23:26:45.985Z,4.60
2022-11-03T23:29:17.405Z,4.35
2022-11-03T23:31:47.065Z,5.10
2022-11-03T23:34:16.573Z,5.22
2022-11-03T23:36:45.829Z,5.55
2022-11-03T23:39:16.271Z,5.25
2022-11-03T23:41:45.441Z,6.40
2022-11-03T23:44:16.816Z,5.57
2022-11-03T23:47:03.311Z,5.15
2022-11-03T23:49:31.897Z,5.10
2022-11-03T23:52:00.855Z,5.80
2022-11-03T23:54:29.260Z,5.70
2022-11-03T23:57:15.118Z,5.90
